createdAt,value
2022-08-09T00:01:10.482Z,102178.13
2022-08-09T00:04:00.764Z,102172.59
2022-08-09T00:06:39.205Z,102178.13
2022-08-09T00:09:18.224Z,102180.22
2022-08-09T00:12:02.693Z,102183.25
2022-08-09T00:14:36.473Z,102173.84
2022-08-09T00:18:10.901Z,102182.25
2022-08-09T00:20:05.116Z,102173.97
2022-08-09T00:22:36.947Z,102180.38
2022-08-09T00:25:12.964Z,102172.03
2022-08-09T00:27:45.066Z,102177.94
2022-08-09T00:30:26.119Z,102175.06
2022-08-09T00:33:01.708Z,102163.59
2022-08-09T00:35:43.028Z,102170.72
2022-08-09T00:38:16.368Z,102172.91
2022-08-09T00:40:53.954Z,102171.25
2022-08-09T00:44:10.786Z,102176.56
2022-08-09T00:46:45.324Z,102173.47
2022-08-09T00:49:15.075Z,102176.50
2022-08-09T00:51:55.934Z,102174.16
2022-08-09T00:54:31.502Z,102171.84
2022-08-09T00:57:10.207Z,102173.19
2022-08-09T00:59:52.291Z,102184.59
2022-08-09T01:02:27.866Z,102168.84
2022-08-09T01:05:14.302Z,102169.31
2022-08-09T01:08:01.575Z,102168.41
2022-08-09T01:10:41.794Z,102174.06
2022-08-09T01:13:22.141Z,102170.97
2022-08-09T01:15:57.367Z,102164.91
2022-08-09T01:18:34.317Z,102181.16
2022-08-09T01:21:24.849Z,102177.84
2022-08-09T01:24:05.098Z,102174.69
2022-08-09T01:27:00.635Z,102173.16
2022-08-09T01:29:41.292Z,102168.78
2022-08-09T01:32:37.595Z,102163.50
2022-08-09T01:35:29.136Z,102167.16
2022-08-09T01:38:14.932Z,102176.63
2022-08-09T01:40:53.076Z,102179.91
2022-08-09T01:43:51.028Z,102185.75
2022-08-09T01:46:27.976Z,102176.31
2022-08-09T01:49:10.689Z,102179.63
2022-08-09T01:51:53.294Z,102178.97
2022-08-09T01:54:32.612Z,102178.56
2022-08-09T01:57:11.125Z,102183.16
2022-08-09T01:59:53.665Z,102176.94
2022-08-09T02:02:36.218Z,102170.78
2022-08-09T02:05:15.807Z,102168.38
2022-08-09T02:08:40.560Z,102180.41
2022-08-09T02:10:50.915Z,102182.97
2022-08-09T02:13:37.419Z,102176.38
2022-08-09T02:16:16.684Z,102175.44
2022-08-09T02:18:48.538Z,102162.78
2022-08-09T02:21:24.566Z,102178.69
2022-08-09T02:24:03.109Z,102178.91
2022-08-09T02:26:39.404Z,102180.13
2022-08-09T02:29:20.989Z,102194.31
2022-08-09T02:32:01.404Z,102189.06
2022-08-09T02:34:41.073Z,102184.94
2022-08-09T02:37:24.294Z,102188.78
2022-08-09T02:40:09.442Z,102185.19
2022-08-09T02:42:46.457Z,102192.66
2022-08-09T02:45:28.926Z,102183.16
2022-08-09T02:48:06.534Z,102188.88
2022-08-09T02:50:56.582Z,102193.69
2022-08-09T02:53:31.765Z,102193.69
2022-08-09T02:56:09.534Z,102182.53
2022-08-09T02:58:44.815Z,102183.03
2022-08-09T03:01:29.096Z,102184.94
2022-08-09T03:04:18.564Z,102190.97
2022-08-09T03:06:52.406Z,102189.09
2022-08-09T03:09:25.684Z,102190.31
2022-08-09T03:12:11.297Z,102195.66
2022-08-09T03:14:47.097Z,102193.81
2022-08-09T03:17:26.601Z,102193.81
2022-08-09T03:20:11.611Z,102195.78
2022-08-09T03:22:56.866Z,102201.22
2022-08-09T03:25:59.051Z,102192.53
2022-08-09T03:28:24.155Z,102192.28
2022-08-09T03:30:58.348Z,102194.72
2022-08-09T03:33:54.696Z,102193.88
2022-08-09T03:36:28.195Z,102200.75
2022-08-09T03:39:00.265Z,102194.81
2022-08-09T03:41:45.844Z,102194.06
2022-08-09T03:44:22.024Z,102199.59
2022-08-09T03:47:00.398Z,102200.72
2022-08-09T03:49:35.894Z,102200.16
2022-08-09T03:52:12.117Z,102200.47
2022-08-09T03:54:44.775Z,102203.56
2022-08-09T03:57:20.908Z,102202.31
2022-08-09T04:00:01.364Z,102212.41
2022-08-09T04:02:35.951Z,102211.75
2022-08-09T04:05:17.270Z,102212.38
2022-08-09T04:08:02.326Z,102215.22
2022-08-09T04:10:34.505Z,102221.03
2022-08-09T04:13:11.270Z,102218.31
2022-08-09T04:16:18.722Z,102219.06
2022-08-09T04:18:37.535Z,102224.34
2022-08-09T04:21:09.925Z,102226.41
2022-08-09T04:23:57.725Z,102222.94
2022-08-09T04:26:37.821Z,102228.75
2022-08-09T04:29:14.826Z,102229.13
2022-08-09T04:31:47.936Z,102234.53
2022-08-09T04:34:30.428Z,102233.00
2022-08-09T04:37:04.577Z,102232.81
2022-08-09T04:39:40.631Z,102235.41
2022-08-09T04:42:15.916Z,102235.34
2022-08-09T04:44:50.955Z,102239.09
2022-08-09T04:47:25.603Z,102236.34
2022-08-09T04:50:05.848Z,102240.03
2022-08-09T07:56:06.431Z,102335.91
2022-08-09T07:58:39.412Z,102343.91
2022-08-09T08:01:13.686Z,102338.13
2022-08-09T08:03:46.213Z,102341.84
2022-08-09T08:06:21.454Z,102334.03
2022-08-09T08:09:07.669Z,102339.97
2022-08-09T08:12:10.819Z,102334.22
2022-08-09T08:14:45.913Z,102340.06
2022-08-09T08:17:24.778Z,102337.56
2022-08-09T08:20:12.859Z,102339.91
2022-08-09T08:22:45.450Z,102346.47
2022-08-09T08:25:20.951Z,102334.59
2022-08-09T08:27:55.373Z,102338.50
2022-08-09T08:30:30.292Z,102347.84
2022-08-09T08:33:02.091Z,102335.28
2022-08-09T08:35:58.617Z,102346.28
2022-08-09T08:38:28.600Z,102341.84
2022-08-09T08:41:01.938Z,102331.59
2022-08-09T08:43:42.372Z,102334.78
2022-08-09T08:46:33.006Z,102333.41
2022-08-09T08:49:12.789Z,102345.84
2022-08-09T08:52:00.517Z,102335.22
2022-08-09T08:55:23.559Z,102344.28
2022-08-09T08:57:58.573Z,102341.72
2022-08-09T09:00:34.833Z,102343.16
2022-08-09T09:03:33.270Z,102339.03
2022-08-09T09:06:25.000Z,102342.78
2022-08-09T09:09:20.975Z,102334.94
2022-08-09T09:12:23.427Z,102338.03
2022-08-09T09:15:28.201Z,102334.88
2022-08-09T09:18:03.651Z,102339.84
2022-08-09T09:20:50.662Z,102343.16
2022-08-09T09:23:49.795Z,102340.44
2022-08-09T09:26:45.958Z,102337.72
2022-08-09T09:29:57.949Z,102336.63
2022-08-09T09:32:42.069Z,102343.28
2022-08-09T09:35:17.800Z,102335.41
2022-08-09T09:37:50.230Z,102331.53
2022-08-09T09:40:24.157Z,102334.59
2022-08-09T09:43:13.507Z,102330.00
2022-08-09T09:46:39.474Z,102330.63
2022-08-09T09:48:59.703Z,102333.22
2022-08-09T09:51:37.821Z,102335.41
2022-08-09T09:54:20.338Z,102327.03
2022-08-09T09:58:03.553Z,102324.38
2022-08-09T09:59:52.285Z,102332.41
2022-08-09T10:02:27.271Z,102317.34
2022-08-09T10:05:11.184Z,102330.22
2022-08-09T10:08:11.286Z,102324.53
2022-08-09T10:10:41.181Z,102320.66
2022-08-09T10:13:13.903Z,102319.44
2022-08-09T10:16:54.841Z,102317.41
2022-08-09T10:18:59.919Z,102319.63
2022-08-09T10:21:33.061Z,102310.38
2022-08-09T10:24:08.584Z,102308.75
2022-08-09T10:26:49.782Z,102314.38
2022-08-09T10:30:08.391Z,102304.91
2022-08-09T10:32:48.393Z,102312.38
2022-08-09T10:35:13.336Z,102316.72
2022-08-09T10:37:48.241Z,102291.03
2022-08-09T10:40:34.917Z,102300.59
2022-08-09T10:43:10.684Z,102304.13
2022-08-09T10:45:58.720Z,102304.84
2022-08-09T10:48:40.883Z,102302.97
2022-08-09T10:51:21.437Z,102292.94
2022-08-09T10:54:06.503Z,102291.81
2022-08-09T10:56:48.349Z,102289.81
2022-08-09T10:59:55.247Z,102286.22
2022-08-09T11:03:11.527Z,102285.84
2022-08-09T11:05:35.019Z,102287.03
2022-08-09T11:08:43.717Z,102286.44
2022-08-09T11:11:20.881Z,102283.28
2022-08-09T11:14:35.643Z,102271.56
2022-08-09T11:18:02.844Z,102278.16
2022-08-09T11:20:49.736Z,102282.03
2022-08-09T11:23:23.795Z,102285.06
2022-08-09T11:26:04.058Z,102284.03
2022-08-09T11:28:56.153Z,102283.88
2022-08-09T11:31:52.668Z,102284.91
2022-08-09T11:34:44.421Z,102284.47
2022-08-09T11:37:40.684Z,102284.56
2022-08-09T11:40:17.750Z,102285.13
2022-08-09T11:42:52.900Z,102274.53
2022-08-09T11:45:42.572Z,102287.38
2022-08-09T11:48:28.002Z,102275.53
2022-08-09T11:51:38.011Z,102279.78
2022-08-09T11:54:28.542Z,102276.88
2022-08-09T11:57:47.757Z,102270.47
2022-08-09T12:14:10.106Z,102268.19
2022-08-09T12:17:28.316Z,102265.41
2022-08-09T12:20:21.938Z,102257.69
2022-08-09T12:22:57.889Z,102258.00
2022-08-09T12:25:37.956Z,102254.91
2022-08-09T12:29:12.229Z,102265.16
2022-08-09T12:31:10.784Z,102260.94
2022-08-09T12:33:58.865Z,102261.66
2022-08-09T12:36:36.351Z,102271.94
2022-08-09T12:39:18.046Z,102260.78
2022-08-09T12:41:51.990Z,102264.25
2022-08-09T12:44:24.814Z,102261.13
2022-08-09T12:46:57.168Z,102254.09
2022-08-09T12:49:29.490Z,102252.94
2022-08-09T12:52:04.769Z,102257.16
2022-08-09T12:56:10.787Z,102254.78
2022-08-09T12:57:47.348Z,102252.59
2022-08-09T13:00:25.062Z,102245.16
2022-08-09T13:03:00.811Z,102233.59
2022-08-09T13:06:12.992Z,102238.34
2022-08-09T13:09:02.018Z,102232.59
2022-08-09T13:11:42.277Z,102235.28
2022-08-09T13:14:42.859Z,102231.53
2022-08-09T13:17:43.662Z,102230.34
2022-08-09T13:20:16.388Z,102233.00
2022-08-09T13:23:05.881Z,102227.69
2022-08-09T13:25:54.617Z,102234.31
2022-08-09T13:28:34.705Z,102232.13
2022-08-09T13:32:15.071Z,102225.38
2022-08-09T13:34:03.529Z,102230.72
2022-08-09T13:36:43.285Z,102234.72
2022-08-09T13:41:18.789Z,102229.03
2022-08-09T13:42:15.350Z,102226.78
2022-08-09T13:44:50.570Z,102236.75
2022-08-09T13:47:33.723Z,102228.22
2022-08-09T13:50:30.047Z,102227.47
2022-08-09T13:53:03.656Z,102230.09
2022-08-09T13:55:36.850Z,102235.94
2022-08-09T13:58:12.568Z,102228.59
2022-08-09T14:00:48.341Z,102227.16
2022-08-09T14:04:01.839Z,102228.03
2022-08-09T14:06:26.616Z,102214.69
2022-08-09T14:09:01.668Z,102216.44
2022-08-09T14:11:47.160Z,102216.38
2022-08-09T14:14:27.060Z,102208.19
2022-08-09T14:17:01.928Z,102211.66
2022-08-09T14:19:34.512Z,102212.41
2022-08-09T14:22:06.708Z,102204.84
2022-08-09T14:24:53.262Z,102209.88
2022-08-09T14:27:26.753Z,102208.22
2022-08-09T14:30:35.650Z,102215.22
2022-08-09T14:32:53.488Z,102224.47
2022-08-09T14:35:25.888Z,102218.47
2022-08-09T14:38:17.889Z,102216.53
2022-08-09T14:41:02.264Z,102225.56
2022-08-09T14:43:53.311Z,102221.19
2022-08-09T14:46:54.646Z,102214.47
2022-08-09T14:49:23.601Z,102222.81
2022-08-09T14:51:58.430Z,102228.28
2022-08-09T14:54:31.331Z,102210.50
2022-08-09T14:57:06.448Z,102206.88
2022-08-09T14:59:38.611Z,102214.56
2022-08-09T15:02:14.387Z,102212.06
2022-08-09T15:04:49.947Z,102210.13
2022-08-09T15:07:23.477Z,102206.38
2022-08-09T15:10:04.861Z,102211.94
2022-08-09T15:12:44.937Z,102205.22
2022-08-09T15:15:17.448Z,102205.66
2022-08-09T15:17:53.356Z,102210.22
2022-08-09T15:21:57.533Z,102205.09
2022-08-09T15:24:00.707Z,102214.31
2022-08-09T15:26:19.196Z,102212.66
2022-08-09T15:29:04.026Z,102212.78
2022-08-09T15:31:41.026Z,102209.88
2022-08-09T15:34:34.199Z,102204.25
2022-08-09T15:37:37.360Z,102210.38
2022-08-09T15:40:13.039Z,102201.09
2022-08-09T15:42:47.610Z,102195.84
2022-08-09T15:45:21.392Z,102195.75
2022-08-09T15:48:05.542Z,102189.75
2022-08-09T15:50:44.332Z,102191.03
2022-08-09T15:53:32.691Z,102190.13
2022-08-09T15:56:21.578Z,102187.94
2022-08-09T15:59:01.170Z,102194.91
2022-08-09T16:01:35.625Z,102191.00
2022-08-09T16:04:12.006Z,102196.53
2022-08-09T16:06:50.322Z,102184.44
2022-08-09T16:09:51.127Z,102189.34
2022-08-09T16:12:15.689Z,102184.41
2022-08-09T16:14:47.828Z,102186.47
2022-08-09T16:17:20.009Z,102181.81
2022-08-09T16:20:03.793Z,102190.47
2022-08-09T16:22:48.688Z,102184.56
2022-08-09T16:25:33.481Z,102190.69
2022-08-09T16:28:13.836Z,102184.13
2022-08-09T16:30:58.936Z,102188.09
2022-08-09T16:33:35.845Z,102187.78
2022-08-09T16:36:15.960Z,102191.75
2022-08-09T16:38:54.273Z,102187.88
2022-08-09T16:42:02.266Z,102184.22
2022-08-09T16:44:19.668Z,102182.44
2022-08-09T16:46:55.346Z,102176.72
2022-08-09T16:50:31.927Z,102186.31
2022-08-09T16:52:27.953Z,102184.94
2022-08-09T16:55:03.291Z,102185.41
2022-08-09T16:58:08.203Z,102176.34
2022-08-09T17:00:29.135Z,102192.59
2022-08-09T17:03:03.149Z,102192.44
2022-08-09T17:06:07.859Z,102191.91
2022-08-09T17:08:46.595Z,102194.50
2022-08-09T17:11:41.043Z,102198.31
2022-08-09T17:14:15.879Z,102201.94
2022-08-09T17:17:02.201Z,102199.63
2022-08-09T17:19:47.312Z,102208.31
2022-08-09T17:22:31.076Z,102203.63
2022-08-09T17:25:04.919Z,102204.53
2022-08-09T17:27:48.825Z,102210.09
2022-08-09T17:30:22.468Z,102204.53
2022-08-09T17:33:05.254Z,102206.88
2022-08-09T17:35:51.489Z,102205.53
2022-08-09T17:38:31.002Z,102216.50
2022-08-09T17:41:05.769Z,102212.25
2022-08-09T17:43:40.848Z,102220.47
2022-08-09T17:46:14.431Z,102226.31
2022-08-09T17:48:59.093Z,102222.69
2022-08-09T17:51:31.153Z,102231.47
2022-08-09T17:54:03.735Z,102227.16
2022-08-09T17:56:37.448Z,102223.81
2022-08-09T17:59:16.146Z,102231.25
2022-08-09T18:02:08.080Z,102236.34
2022-08-09T18:04:43.073Z,102241.34
2022-08-09T18:07:23.356Z,102233.59
2022-08-09T18:10:04.630Z,102232.41
2022-08-09T18:12:40.583Z,102231.25
2022-08-09T18:16:05.380Z,102235.31
2022-08-09T18:18:25.805Z,102240.97
2022-08-09T18:21:10.468Z,102249.22
2022-08-09T18:24:11.629Z,102245.97
2022-08-09T18:26:46.205Z,102245.63
2022-08-09T18:30:35.613Z,102250.16
2022-08-09T18:32:18.951Z,102257.94
2022-08-09T18:34:51.191Z,102247.25
2022-08-09T18:37:48.531Z,102249.94
2022-08-09T18:40:27.030Z,102255.44
2022-08-09T18:42:59.669Z,102263.16
2022-08-09T18:46:49.928Z,102257.94
2022-08-09T18:48:30.309Z,102266.72
2022-08-09T18:51:04.934Z,102264.34
2022-08-09T18:54:01.020Z,102266.41
2022-08-09T18:56:31.189Z,102267.22
2022-08-09T18:59:05.971Z,102265.56
2022-08-09T19:01:46.042Z,102267.50
2022-08-09T19:04:34.797Z,102277.63
2022-08-09T19:07:08.368Z,102285.25
2022-08-09T19:10:14.781Z,102290.13
2022-08-09T19:12:38.195Z,102291.59
2022-08-09T19:15:12.548Z,102288.03
2022-08-09T19:17:55.043Z,102286.78
2022-08-09T19:20:34.440Z,102290.81
2022-08-09T19:23:16.552Z,102294.22
2022-08-09T19:26:02.217Z,102302.25
2022-08-09T19:28:38.097Z,102292.75
2022-08-09T19:31:10.270Z,102287.66
2022-08-09T19:33:43.193Z,102299.72
2022-08-09T19:36:20.849Z,102302.69
2022-08-09T19:38:55.308Z,102307.97
2022-08-09T19:41:33.054Z,102303.56
2022-08-09T19:44:08.192Z,102316.22
2022-08-09T19:46:50.192Z,102311.56
2022-08-09T19:50:10.140Z,102310.09
2022-08-09T19:52:21.397Z,102306.94
2022-08-09T19:55:06.156Z,102316.19
2022-08-09T19:57:39.008Z,102315.13
2022-08-09T20:00:16.349Z,102311.97
2022-08-09T20:04:09.785Z,102317.41
2022-08-09T20:05:46.401Z,102318.28
2022-08-09T20:08:24.741Z,102322.28
2022-08-09T20:11:05.709Z,102320.38
2022-08-09T20:13:38.209Z,102319.72
2022-08-09T20:16:36.247Z,102328.38
2022-08-09T20:19:42.599Z,102326.84
2022-08-09T20:21:57.476Z,102327.06
2022-08-09T20:24:35.129Z,102331.50
2022-08-09T20:27:09.000Z,102335.63
2022-08-09T20:29:43.730Z,102338.28
2022-08-09T20:32:29.274Z,102331.97
2022-08-09T20:35:04.209Z,102333.81
2022-08-09T20:38:20.334Z,102330.00
2022-08-09T20:40:33.393Z,102328.66
2022-08-09T20:43:24.305Z,102332.59
2022-08-09T20:46:00.221Z,102332.13
2022-08-09T20:48:49.933Z,102328.28
2022-08-09T20:51:26.336Z,102333.00
2022-08-09T20:53:58.390Z,102337.31
2022-08-09T20:56:33.290Z,102345.78
2022-08-09T20:59:05.399Z,102342.38
2022-08-09T21:01:50.352Z,102335.09
2022-08-09T21:05:52.591Z,102336.06
2022-08-09T21:07:17.050Z,102338.31
2022-08-09T21:09:56.597Z,102340.72
2022-08-09T21:12:34.575Z,102342.00
2022-08-09T21:15:12.368Z,102342.31
2022-08-09T21:18:22.509Z,102344.06
2022-08-09T21:20:39.140Z,102347.13
2022-08-09T21:23:13.308Z,102349.50
2022-08-09T21:25:59.662Z,102351.13
2022-08-09T21:28:37.569Z,102362.34
2022-08-09T21:31:16.240Z,102360.13
2022-08-09T21:33:53.155Z,102359.13
2022-08-09T21:36:31.027Z,102363.91
2022-08-09T21:39:04.861Z,102361.66
2022-08-09T21:42:06.100Z,102358.63
2022-08-09T21:44:35.306Z,102359.28
2022-08-09T21:47:17.650Z,102369.06
2022-08-09T21:49:51.078Z,102364.09
2022-08-09T21:52:24.469Z,102360.44
2022-08-09T21:55:03.884Z,102366.88
2022-08-09T21:57:59.966Z,102367.38
2022-08-09T22:00:36.451Z,102360.00
2022-08-09T22:03:19.355Z,102360.53
2022-08-09T22:05:59.229Z,102355.81
2022-08-09T22:08:31.690Z,102363.28
2022-08-09T22:12:05.718Z,102361.97
2022-08-09T22:13:57.711Z,102365.00
2022-08-09T22:16:37.363Z,102363.38
2022-08-09T22:19:58.035Z,102362.03
2022-08-09T22:22:02.572Z,102365.53
2022-08-09T22:24:34.949Z,102363.38
2022-08-09T22:27:10.291Z,102359.75
2022-08-09T22:29:50.086Z,102364.44
2022-08-09T22:32:31.499Z,102358.44
2022-08-09T22:35:06.874Z,102356.53
2022-08-09T22:38:07.144Z,102367.28
2022-08-09T22:40:40.411Z,102369.56
2022-08-09T22:44:01.521Z,102369.75
2022-08-09T22:48:10.614Z,102367.38
2022-08-09T22:49:10.603Z,102367.91
2022-08-09T22:51:49.892Z,102370.53
2022-08-09T22:54:30.249Z,102365.94
2022-08-09T22:57:02.500Z,102366.75
2022-08-09T22:59:55.475Z,102369.31
2022-08-09T23:02:27.576Z,102367.59
2022-08-09T23:05:03.051Z,102370.25
2022-08-09T23:08:22.665Z,102369.63
2022-08-09T23:10:43.930Z,102365.78
2022-08-09T23:13:16.371Z,102370.97
2022-08-09T23:16:03.183Z,102367.22
2022-08-09T23:18:36.273Z,102370.63
2022-08-09T23:21:12.193Z,102376.00
2022-08-09T23:24:05.393Z,102377.47
2022-08-09T23:26:37.850Z,102372.22
2022-08-09T23:29:14.220Z,102374.72
2022-08-09T23:31:50.177Z,102371.13
2022-08-09T23:34:24.888Z,102372.13
2022-08-09T23:37:00.068Z,102366.69
2022-08-09T23:39:32.535Z,102375.22
2022-08-09T23:42:05.071Z,102371.19
2022-08-09T23:44:37.790Z,102361.63
2022-08-09T23:47:10.291Z,102372.44
2022-08-09T23:49:42.590Z,102370.75
2022-08-09T23:52:18.231Z,102371.97
2022-08-09T23:54:55.809Z,102372.94
2022-08-09T23:57:28.493Z,102379.06
